createdAt,value
2023-03-08T00:00:12.050Z,0
2023-03-08T00:01:12.640Z,0
2023-03-08T00:02:13.234Z,0
2023-03-08T00:03:13.826Z,0
2023-03-08T00:04:14.559Z,0
2023-03-08T00:05:15.248Z,0
2023-03-08T00:06:15.862Z,0
2023-03-08T00:07:16.498Z,0
2023-03-08T00:08:17.069Z,0
2023-03-08T00:09:17.640Z,0
2023-03-08T00:10:18.244Z,0
2023-03-08T00:11:18.830Z,0
2023-03-08T00:12:19.436Z,0
2023-03-08T00:13:20.035Z,0
2023-03-08T00:14:20.651Z,0
2023-03-08T00:15:21.210Z,0
2023-03-08T00:16:21.838Z,0
2023-03-08T00:17:22.457Z,0
2023-03-08T00:18:23.052Z,0
2023-03-08T00:19:23.664Z,0
2023-03-08T00:20:24.257Z,0
2023-03-08T00:21:24.849Z,0
2023-03-08T00:22:25.463Z,0
2023-03-08T00:23:26.055Z,0
2023-03-08T00:24:26.650Z,0
2023-03-08T00:25:27.240Z,0
2023-03-08T00:26:27.832Z,0
2023-03-08T00:27:28.424Z,0
2023-03-08T00:28:29.021Z,0
2023-03-08T00:29:29.612Z,0
2023-03-08T00:30:30.212Z,0
2023-03-08T00:31:30.833Z,0
2023-03-08T00:32:31.481Z,0
2023-03-08T00:33:32.039Z,0
2023-03-08T00:34:32.632Z,0
2023-03-08T00:35:33.240Z,0
2023-03-08T00:36:33.825Z,0
2023-03-08T00:37:34.415Z,0
2023-03-08T00:38:35.025Z,0
2023-03-08T00:39:35.602Z,0
2023-03-08T00:40:36.199Z,0
2023-03-08T00:41:36.793Z,0
2023-03-08T00:42:37.386Z,0
2023-03-08T00:43:37.994Z,0
2023-03-08T00:44:38.592Z,0
2023-03-08T00:45:39.224Z,0
2023-03-08T00:46:39.827Z,0
2023-03-08T00:47:40.414Z,0
2023-03-08T00:48:41.014Z,0
2023-03-08T00:49:41.741Z,0
2023-03-08T00:50:42.354Z,0
2023-03-08T00:51:42.957Z,0
2023-03-08T00:52:43.545Z,0
2023-03-08T00:53:44.151Z,0
2023-03-08T00:54:44.739Z,0
2023-03-08T00:55:45.331Z,0
2023-03-08T00:56:45.926Z,0
2023-03-08T00:57:46.521Z,0
2023-03-08T00:58:47.138Z,0
2023-03-08T00:59:47.712Z,0
2023-03-08T01:00:48.344Z,0
2023-03-08T01:01:48.910Z,0
2023-03-08T01:02:49.506Z,0
2023-03-08T01:03:50.100Z,0
2023-03-08T01:04:50.693Z,0
2023-03-08T01:05:51.289Z,0
2023-03-08T01:06:51.903Z,0
2023-03-08T01:07:52.495Z,0
2023-03-08T01:08:53.106Z,0
2023-03-08T01:09:53.698Z,0
2023-03-08T01:10:54.303Z,0
2023-03-08T01:11:54.883Z,0
2023-03-08T01:12:55.482Z,0
2023-03-08T01:13:56.073Z,0
2023-03-08T01:14:56.663Z,0
2023-03-08T01:15:57.258Z,0
2023-03-08T01:16:57.858Z,0
2023-03-08T01:17:58.468Z,0
2023-03-08T01:18:59.061Z,0
2023-03-08T01:19:59.656Z,0
2023-03-08T01:21:00.253Z,0
2023-03-08T01:22:00.847Z,0
2023-03-08T01:23:01.441Z,0
2023-03-08T01:24:02.061Z,0
2023-03-08T01:25:02.669Z,0
2023-03-08T01:26:03.266Z,0
2023-03-08T01:27:03.876Z,0
2023-03-08T01:28:04.480Z,0
2023-03-08T01:29:05.067Z,0
2023-03-08T01:30:05.660Z,0
2023-03-08T01:31:06.253Z,0
2023-03-08T01:32:06.862Z,0
2023-03-08T01:33:07.442Z,0
2023-03-08T01:34:08.040Z,0
2023-03-08T01:35:08.628Z,0
2023-03-08T01:36:09.285Z,0
2023-03-08T01:37:09.897Z,0
2023-03-08T01:38:10.487Z,0
2023-03-08T01:39:11.082Z,0
2023-03-08T01:40:11.678Z,0
2023-03-08T01:41:12.266Z,0
2023-03-08T01:42:12.855Z,0
2023-03-08T01:43:13.452Z,0
2023-03-08T01:44:14.061Z,0
2023-03-08T01:45:14.654Z,0
2023-03-08T01:46:15.249Z,0
2023-03-08T01:47:15.846Z,0
2023-03-08T01:48:16.433Z,0
2023-03-08T01:49:17.030Z,0
2023-03-08T01:50:17.645Z,0
2023-03-08T01:51:18.250Z,0
2023-03-08T01:52:18.845Z,0
2023-03-08T01:53:19.447Z,0
2023-03-08T01:54:20.030Z,0
2023-03-08T01:55:20.627Z,0
2023-03-08T01:56:21.224Z,0
2023-03-08T01:57:21.813Z,0
2023-03-08T01:58:22.405Z,0
2023-03-08T01:59:23.009Z,0
2023-03-08T02:00:23.587Z,0
2023-03-08T02:01:24.190Z,0
2023-03-08T02:02:27.170Z,0
2023-03-08T02:03:25.393Z,0
2023-03-08T02:04:25.976Z,0
2023-03-08T02:05:26.569Z,0
2023-03-08T02:06:27.166Z,0
2023-03-08T02:07:27.754Z,0
2023-03-08T02:08:28.347Z,0
2023-03-08T02:09:28.938Z,0
2023-03-08T02:10:29.539Z,0
2023-03-08T02:11:30.146Z,0
2023-03-08T02:12:30.739Z,0
2023-03-08T02:13:31.333Z,0
2023-03-08T02:14:31.927Z,0
2023-03-08T02:15:32.520Z,0
2023-03-08T02:16:33.129Z,0
2023-03-08T02:17:33.709Z,0
2023-03-08T02:18:34.304Z,0
2023-03-08T02:19:34.918Z,0
2023-03-08T02:20:35.518Z,0
2023-03-08T02:21:36.117Z,0
2023-03-08T02:22:36.705Z,0
2023-03-08T02:23:37.304Z,0
2023-03-08T02:24:37.915Z,0
2023-03-08T02:25:38.489Z,0
2023-03-08T02:26:39.081Z,0
2023-03-08T02:27:39.673Z,0
2023-03-08T02:28:40.262Z,0
2023-03-08T02:29:40.855Z,0
2023-03-08T02:30:41.467Z,0
2023-03-08T02:31:42.064Z,0
2023-03-08T02:32:42.734Z,0
2023-03-08T02:33:43.259Z,0
2023-03-08T02:34:43.857Z,0
2023-03-08T02:35:44.522Z,0
2023-03-08T02:36:45.073Z,0
2023-03-08T02:37:45.667Z,0
2023-03-08T02:38:46.258Z,0
2023-03-08T02:39:46.850Z,0
2023-03-08T02:40:47.445Z,0
2023-03-08T02:41:48.054Z,0
2023-03-08T02:42:48.650Z,0
2023-03-08T02:43:49.242Z,0
2023-03-08T02:44:49.829Z,0
2023-03-08T02:45:50.419Z,0
2023-03-08T02:46:51.011Z,0
2023-03-08T02:47:51.600Z,0
2023-03-08T02:48:52.193Z,0
2023-03-08T02:49:52.785Z,0
2023-03-08T02:50:53.392Z,0
2023-03-08T02:51:54.042Z,0
2023-03-08T02:52:54.579Z,0
2023-03-08T02:53:55.188Z,0
2023-03-08T02:54:55.783Z,0
2023-03-08T02:55:56.373Z,0
2023-03-08T02:56:56.967Z,0
2023-03-08T02:57:57.555Z,0
2023-03-08T02:58:58.147Z,0
2023-03-08T02:59:58.742Z,0
2023-03-08T03:00:59.441Z,0
2023-03-08T03:02:00.020Z,0
2023-03-08T03:03:00.628Z,0
2023-03-08T03:04:01.235Z,0
2023-03-08T03:05:01.811Z,0
2023-03-08T03:06:02.490Z,0
2023-03-08T03:07:03.058Z,0
2023-03-08T03:08:03.648Z,0
2023-03-08T03:09:04.242Z,0
2023-03-08T03:10:04.837Z,0
2023-03-08T03:11:05.426Z,0
2023-03-08T03:12:06.015Z,0
2023-03-08T03:13:06.613Z,0
2023-03-08T03:14:07.201Z,0
2023-03-08T03:15:07.820Z,0
2023-03-08T03:16:09.409Z,0
2023-03-08T03:17:09.867Z,0
2023-03-08T03:18:10.471Z,0
2023-03-08T03:19:11.070Z,0
2023-03-08T03:20:11.671Z,0
2023-03-08T03:21:12.290Z,0
2023-03-08T03:22:12.865Z,0
2023-03-08T03:23:13.456Z,0
2023-03-08T03:24:14.045Z,0
2023-03-08T03:25:14.639Z,0
2023-03-08T03:26:15.234Z,0
2023-03-08T03:27:15.826Z,0
2023-03-08T03:28:16.419Z,0
2023-03-08T03:29:17.018Z,0
2023-03-08T03:30:17.610Z,0
2023-03-08T03:31:18.265Z,0
2023-03-08T03:32:18.866Z,0
2023-03-08T03:33:19.448Z,0
2023-03-08T03:34:20.041Z,0
2023-03-08T03:35:20.637Z,0
2023-03-08T03:36:21.232Z,0
2023-03-08T03:37:21.823Z,0
2023-03-08T03:38:22.445Z,0
2023-03-08T03:39:23.029Z,0
2023-03-08T03:40:23.619Z,0
2023-03-08T03:41:24.213Z,0
2023-03-08T03:42:24.803Z,0
2023-03-08T03:43:25.419Z,0
2023-03-08T03:44:26.015Z,0
2023-03-08T03:45:26.647Z,0
2023-03-08T03:46:27.273Z,0
2023-03-08T03:47:27.843Z,0
2023-03-08T03:48:28.436Z,0
2023-03-08T03:49:29.030Z,0
2023-03-08T03:50:29.621Z,0
2023-03-08T03:51:30.216Z,0
2023-03-08T03:52:30.810Z,0
2023-03-08T03:53:31.400Z,0
2023-03-08T03:54:31.994Z,0
2023-03-08T03:55:32.599Z,0
2023-03-08T03:56:33.176Z,0
2023-03-08T03:57:33.770Z,0
2023-03-08T03:58:34.386Z,0
2023-03-08T03:59:34.985Z,0
2023-03-08T04:00:35.573Z,0
2023-03-08T04:01:36.168Z,0
2023-03-08T04:02:36.818Z,0
2023-03-08T04:03:37.448Z,0
2023-03-08T04:04:37.997Z,0
2023-03-08T04:05:38.586Z,0
2023-03-08T04:06:39.181Z,0
2023-03-08T04:07:39.775Z,0
2023-03-08T04:08:40.368Z,0
2023-03-08T04:09:40.962Z,0
2023-03-08T04:10:41.559Z,0
2023-03-08T04:11:42.249Z,0
2023-03-08T04:12:42.788Z,0
2023-03-08T04:13:43.380Z,0
2023-03-08T04:14:43.976Z,0
2023-03-08T04:15:44.618Z,0
2023-03-08T04:16:45.186Z,0
2023-03-08T04:17:45.785Z,0
2023-03-08T04:18:46.375Z,0
2023-03-08T04:19:46.975Z,0
2023-03-08T04:20:47.561Z,0
2023-03-08T04:21:48.153Z,0
2023-03-08T04:22:48.752Z,0
2023-03-08T04:23:49.347Z,0
2023-03-08T04:24:49.952Z,0
2023-03-08T04:25:50.547Z,0
2023-03-08T04:26:51.139Z,0
2023-03-08T04:27:51.738Z,0
2023-03-08T04:28:52.369Z,0
2023-03-08T04:29:52.946Z,0
2023-03-08T04:30:53.543Z,0
2023-03-08T04:31:54.156Z,0
2023-03-08T04:32:54.767Z,0
2023-03-08T04:33:55.360Z,0
2023-03-08T04:34:55.954Z,0
2023-03-08T04:35:56.600Z,0
2023-03-08T04:36:57.163Z,0
2023-03-08T04:37:57.756Z,0
2023-03-08T04:38:58.424Z,0
2023-03-08T04:39:58.967Z,0
2023-03-08T04:40:59.556Z,0
2023-03-08T04:42:00.150Z,0
2023-03-08T04:43:00.761Z,0
2023-03-08T04:44:01.373Z,0
2023-03-08T04:45:01.976Z,0
2023-03-08T04:46:02.567Z,0
2023-03-08T04:47:03.202Z,0
2023-03-08T04:48:03.792Z,0
2023-03-08T04:49:04.384Z,0
2023-03-08T04:50:04.979Z,0
2023-03-08T04:51:05.573Z,0
2023-03-08T04:52:06.165Z,0
2023-03-08T04:53:06.762Z,0
2023-03-08T04:54:07.353Z,0
2023-03-08T04:55:07.945Z,0
2023-03-08T04:56:08.539Z,0
2023-03-08T04:57:09.133Z,0
2023-03-08T04:58:09.740Z,0
2023-03-08T04:59:10.318Z,0
2023-03-08T05:00:10.932Z,0
2023-03-08T05:01:11.546Z,0
2023-03-08T05:02:12.200Z,0
2023-03-08T05:03:12.739Z,0
2023-03-08T05:04:13.329Z,0
2023-03-08T05:05:13.970Z,0
2023-03-08T05:06:14.545Z,0
2023-03-08T05:07:15.147Z,0
2023-03-08T05:08:15.723Z,0
2023-03-08T05:09:16.324Z,0
2023-03-08T05:10:16.933Z,0
2023-03-08T05:11:17.525Z,0
2023-03-08T05:12:18.121Z,0
2023-03-08T05:13:18.720Z,0
2023-03-08T05:14:19.307Z,0
2023-03-08T05:15:19.906Z,0
2023-03-08T05:16:20.583Z,0
2023-03-08T05:17:21.140Z,0
2023-03-08T05:18:21.739Z,0
2023-03-08T05:19:22.338Z,0
2023-03-08T05:20:22.928Z,0
2023-03-08T05:21:23.515Z,0
2023-03-08T05:22:24.115Z,0
2023-03-08T05:23:24.703Z,0
2023-03-08T05:24:25.296Z,0
2023-03-08T05:25:25.888Z,0
2023-03-08T05:26:26.485Z,0
2023-03-08T05:27:27.080Z,0
2023-03-08T05:28:27.678Z,0
2023-03-08T05:29:28.270Z,0
2023-03-08T05:30:28.871Z,0
2023-03-08T05:31:29.541Z,0
2023-03-08T05:32:30.101Z,0
2023-03-08T05:33:30.697Z,0
2023-03-08T05:34:31.282Z,0
2023-03-08T05:35:31.936Z,0
2023-03-08T05:36:32.508Z,0
2023-03-08T05:37:33.124Z,0
2023-03-08T05:38:33.736Z,0
2023-03-08T05:39:34.317Z,0
2023-03-08T05:40:34.914Z,0
2023-03-08T05:41:35.528Z,0
2023-03-08T05:42:36.129Z,0
2023-03-08T05:43:36.740Z,0
2023-03-08T05:44:37.336Z,0
2023-03-08T05:45:38.109Z,0
2023-03-08T05:46:38.571Z,0
2023-03-08T05:47:39.145Z,0
2023-03-08T05:48:39.738Z,0
2023-03-08T05:49:40.335Z,0
2023-03-08T05:50:40.947Z,0
2023-03-08T05:51:41.541Z,0
2023-03-08T05:52:42.134Z,0
2023-03-08T05:53:42.727Z,0
2023-03-08T05:54:43.324Z,0
2023-03-08T05:55:43.916Z,0
2023-03-08T05:56:44.585Z,0
2023-03-08T05:57:45.123Z,0
2023-03-08T05:58:48.046Z,0
2023-03-08T05:59:47.310Z,0
2023-03-08T06:00:47.902Z,0
2023-03-08T06:01:48.516Z,0
2023-03-08T06:02:49.092Z,0
2023-03-08T06:03:49.688Z,0
2023-03-08T06:04:50.313Z,5
2023-03-08T06:05:50.912Z,5
2023-03-08T06:06:51.509Z,5
2023-03-08T06:07:52.088Z,5
2023-03-08T06:08:52.686Z,5
2023-03-08T06:09:53.281Z,5
2023-03-08T06:10:53.875Z,5
2023-03-08T06:11:54.471Z,5
2023-03-08T06:12:55.076Z,5
2023-03-08T06:13:55.668Z,11
2023-03-08T06:14:56.262Z,11
2023-03-08T06:15:56.858Z,11
2023-03-08T06:16:57.579Z,11
2023-03-08T06:17:58.070Z,16
2023-03-08T06:18:58.662Z,16
2023-03-08T06:19:59.263Z,16
2023-03-08T06:20:59.886Z,16
2023-03-08T06:22:00.471Z,16
2023-03-08T06:23:01.071Z,22
2023-03-08T06:24:01.664Z,22
2023-03-08T06:25:02.261Z,22
2023-03-08T06:26:02.855Z,28
2023-03-08T06:27:03.478Z,28
2023-03-08T06:28:04.049Z,28
2023-03-08T06:29:04.649Z,28
2023-03-08T06:30:05.246Z,28
2023-03-08T06:31:05.885Z,28
2023-03-08T06:32:06.481Z,28
2023-03-08T06:33:07.082Z,33
2023-03-08T06:34:07.667Z,33
2023-03-08T06:35:08.631Z,33
2023-03-08T06:36:09.143Z,33
2023-03-08T06:37:09.739Z,33
2023-03-08T06:38:10.337Z,33
2023-03-08T06:39:10.932Z,33
2023-03-08T06:40:11.528Z,33
2023-03-08T06:41:12.468Z,39
2023-03-08T06:42:12.977Z,39
2023-03-08T06:43:13.580Z,39
2023-03-08T06:44:14.171Z,39
2023-03-08T06:45:14.792Z,39
2023-03-08T06:46:15.434Z,39
2023-03-08T06:47:16.001Z,39
2023-03-08T06:48:16.625Z,45
2023-03-08T06:49:17.212Z,45
2023-03-08T06:50:17.809Z,50
2023-03-08T06:51:18.431Z,50
2023-03-08T06:52:19.048Z,50
2023-03-08T06:53:19.644Z,50
2023-03-08T06:54:20.244Z,50
2023-03-08T06:55:20.843Z,50
2023-03-08T06:56:21.446Z,50
2023-03-08T06:57:22.041Z,50
2023-03-08T06:58:22.655Z,50
2023-03-08T06:59:23.301Z,50
2023-03-08T07:00:23.897Z,50
2023-03-08T07:01:24.499Z,56
2023-03-08T07:02:25.090Z,56
2023-03-08T07:03:25.684Z,56
2023-03-08T07:04:26.328Z,61
2023-03-08T07:05:26.924Z,61
2023-03-08T07:06:27.542Z,61
2023-03-08T07:07:28.181Z,61
2023-03-08T07:08:28.733Z,61
2023-03-08T07:09:29.352Z,67
2023-03-08T07:10:29.988Z,67
2023-03-08T07:11:30.570Z,67
2023-03-08T07:12:31.176Z,73
2023-03-08T07:13:31.764Z,78
2023-03-08T07:14:32.365Z,84
2023-03-08T07:15:32.980Z,90
2023-03-08T07:16:33.554Z,90
2023-03-08T07:17:34.156Z,90
2023-03-08T07:18:34.755Z,90
2023-03-08T07:19:35.357Z,90
2023-03-08T07:20:35.968Z,90
2023-03-08T07:21:36.566Z,90
2023-03-08T07:22:37.172Z,84
2023-03-08T07:23:37.759Z,84
2023-03-08T07:24:38.357Z,84
2023-03-08T07:25:38.960Z,90
2023-03-08T07:26:39.557Z,90
2023-03-08T07:27:40.174Z,90
2023-03-08T07:28:40.767Z,95
2023-03-08T07:29:41.368Z,95
2023-03-08T07:30:41.987Z,95
2023-03-08T07:31:42.690Z,95
2023-03-08T07:32:43.338Z,95
2023-03-08T07:33:43.848Z,95
2023-03-08T07:34:44.454Z,95
2023-03-08T07:35:45.108Z,95
2023-03-08T07:36:45.699Z,95
2023-03-08T07:37:46.292Z,95
2023-03-08T07:38:46.891Z,95
2023-03-08T07:39:47.497Z,95
2023-03-08T07:40:48.091Z,101
2023-03-08T07:41:48.693Z,101
2023-03-08T07:42:49.290Z,101
2023-03-08T07:43:49.912Z,101
2023-03-08T07:44:50.514Z,106
2023-03-08T07:45:51.111Z,106
2023-03-08T07:46:51.709Z,106
2023-03-08T07:47:52.311Z,106
2023-03-08T07:48:55.139Z,106
2023-03-08T07:49:53.535Z,106
2023-03-08T07:50:54.128Z,101
2023-03-08T07:51:54.726Z,106
2023-03-08T07:52:55.325Z,106
2023-03-08T07:53:55.926Z,106
2023-03-08T07:54:56.525Z,112
2023-03-08T07:55:57.156Z,112
2023-03-08T07:56:57.766Z,112
2023-03-08T07:57:58.367Z,112
2023-03-08T07:58:58.966Z,118
2023-03-08T07:59:59.563Z,118
2023-03-08T08:01:00.163Z,123
2023-03-08T08:02:00.764Z,123
2023-03-08T08:03:01.399Z,129
2023-03-08T08:04:02.002Z,129
2023-03-08T08:05:02.638Z,129
2023-03-08T08:06:03.211Z,129
2023-03-08T08:07:05.138Z,129
2023-03-08T08:08:05.394Z,129
2023-03-08T08:09:06.004Z,129
2023-03-08T08:10:06.609Z,135
2023-03-08T08:11:07.276Z,140
2023-03-08T08:12:07.838Z,151
2023-03-08T08:13:08.428Z,163
2023-03-08T08:14:09.026Z,168
2023-03-08T08:15:09.631Z,174
2023-03-08T08:16:10.270Z,180
2023-03-08T08:17:10.834Z,185
2023-03-08T08:18:11.479Z,185
2023-03-08T08:19:12.052Z,180
2023-03-08T08:20:12.652Z,185
2023-03-08T08:21:13.267Z,185
2023-03-08T08:22:13.866Z,191
2023-03-08T08:23:14.468Z,185
2023-03-08T08:24:15.065Z,180
2023-03-08T08:25:15.664Z,168
2023-03-08T08:26:16.268Z,163
2023-03-08T08:27:16.865Z,157
2023-03-08T08:28:17.462Z,157
2023-03-08T08:29:18.059Z,157
2023-03-08T08:30:18.664Z,157
2023-03-08T08:31:19.304Z,163
2023-03-08T08:32:19.931Z,163
2023-03-08T08:33:20.500Z,163
2023-03-08T08:34:21.115Z,163
2023-03-08T08:35:23.941Z,163
2023-03-08T08:36:22.340Z,151
2023-03-08T08:37:22.931Z,146
2023-03-08T08:38:23.540Z,146
2023-03-08T08:39:24.143Z,140
2023-03-08T08:40:25.768Z,146
2023-03-08T08:41:26.344Z,146
2023-03-08T08:42:26.932Z,151
2023-03-08T08:43:27.536Z,157
2023-03-08T08:44:28.140Z,157
2023-03-08T08:45:28.798Z,157
2023-03-08T08:46:29.375Z,157
2023-03-08T08:47:30.011Z,163
2023-03-08T08:48:30.592Z,163
2023-03-08T08:49:31.199Z,157
2023-03-08T08:50:31.815Z,163
2023-03-08T08:51:32.414Z,168
2023-03-08T08:52:33.035Z,168
2023-03-08T08:53:33.613Z,174
2023-03-08T08:54:34.289Z,174
2023-03-08T08:55:34.898Z,174
2023-03-08T08:56:35.522Z,174
2023-03-08T08:57:36.120Z,174
2023-03-08T08:58:36.719Z,174
2023-03-08T08:59:37.322Z,174
2023-03-08T09:00:37.913Z,180
2023-03-08T09:01:38.517Z,180
2023-03-08T09:02:39.143Z,180
2023-03-08T09:03:39.795Z,180
2023-03-08T09:04:40.539Z,180
2023-03-08T09:05:41.130Z,185
2023-03-08T09:06:41.915Z,185
2023-03-08T09:07:42.508Z,191
2023-03-08T09:08:43.100Z,196
2023-03-08T09:09:43.700Z,208
2023-03-08T09:10:44.302Z,219
2023-03-08T09:11:54.253Z,230
2023-03-08T09:12:46.497Z,241
2023-03-08T09:13:47.089Z,247
2023-03-08T09:14:47.691Z,247
2023-03-08T09:15:48.289Z,247
2023-03-08T09:16:49.046Z,241
2023-03-08T09:17:49.677Z,236
2023-03-08T09:18:50.278Z,230
2023-03-08T09:19:50.884Z,225
2023-03-08T09:20:51.479Z,230
2023-03-08T09:21:52.096Z,230
2023-03-08T09:22:52.778Z,230
2023-03-08T09:23:53.414Z,236
2023-03-08T09:24:54.007Z,236
2023-03-08T09:25:54.612Z,241
2023-03-08T09:26:55.204Z,241
2023-03-08T09:27:55.812Z,236
2023-03-08T09:28:56.402Z,230
2023-03-08T09:29:57.004Z,236
2023-03-08T09:30:57.602Z,247
2023-03-08T09:31:58.821Z,258
2023-03-08T09:32:58.816Z,264
2023-03-08T09:33:59.415Z,270
2023-03-08T09:35:00.018Z,275
2023-03-08T09:36:00.656Z,292
2023-03-08T09:37:01.228Z,309
2023-03-08T09:38:01.839Z,326
2023-03-08T09:39:02.438Z,348
2023-03-08T09:40:03.057Z,354
2023-03-08T09:41:03.661Z,354
2023-03-08T09:42:04.266Z,343
2023-03-08T09:43:04.881Z,331
2023-03-08T09:44:05.501Z,315
2023-03-08T09:45:07.457Z,298
2023-03-08T09:46:07.741Z,286
2023-03-08T09:47:08.309Z,298
2023-03-08T09:48:08.967Z,320
2023-03-08T09:49:09.549Z,348
2023-03-08T09:50:10.167Z,354
2023-03-08T09:51:10.772Z,388
2023-03-08T09:52:11.367Z,427
2023-03-08T09:53:11.971Z,478
2023-03-08T09:54:12.566Z,523
2023-03-08T09:55:13.197Z,585
2023-03-08T09:56:13.784Z,630
2023-03-08T09:57:14.431Z,686
2023-03-08T09:58:15.019Z,720
2023-03-08T09:59:15.640Z,770
2023-03-08T10:00:16.238Z,804
2023-03-08T10:01:16.842Z,821
2023-03-08T10:02:17.463Z,855
2023-03-08T10:03:18.058Z,883
2023-03-08T10:04:18.709Z,883
2023-03-08T10:05:19.290Z,905
2023-03-08T10:06:19.891Z,933
2023-03-08T10:07:20.594Z,922
2023-03-08T10:08:21.192Z,905
2023-03-08T10:09:21.793Z,888
2023-03-08T10:10:23.688Z,883
2023-03-08T10:11:23.996Z,888
2023-03-08T10:12:24.585Z,877
2023-03-08T10:13:25.194Z,871
2023-03-08T10:14:25.806Z,877
2023-03-08T10:15:26.412Z,933
2023-03-08T10:16:27.048Z,945
2023-03-08T10:17:27.629Z,911
2023-03-08T10:18:28.230Z,900
2023-03-08T10:19:28.832Z,945
2023-03-08T10:20:29.438Z,967
2023-03-08T10:21:30.029Z,973
2023-03-08T10:22:30.641Z,1006
2023-03-08T10:23:31.232Z,1040
2023-03-08T10:24:31.836Z,1040
2023-03-08T10:25:32.438Z,1029
2023-03-08T10:26:33.045Z,1001
2023-03-08T10:27:33.642Z,1001
2023-03-08T10:28:34.244Z,1018
2023-03-08T10:29:34.846Z,1035
2023-03-08T10:30:35.478Z,1046
2023-03-08T10:31:36.061Z,1063
2023-03-08T10:32:36.677Z,1068
2023-03-08T10:33:37.286Z,1091
2023-03-08T10:34:37.882Z,1096
2023-03-08T10:35:38.531Z,1102
2023-03-08T10:36:39.099Z,1108
2023-03-08T10:37:39.706Z,1102
2023-03-08T10:38:40.312Z,1108
2023-03-08T10:39:40.903Z,1125
2023-03-08T10:40:41.506Z,1158
2023-03-08T10:41:42.132Z,1158
2023-03-08T10:42:42.713Z,1181
2023-03-08T10:43:43.313Z,1147
2023-03-08T10:44:43.919Z,1119
2023-03-08T10:45:44.518Z,1102
2023-03-08T10:46:45.116Z,1108
2023-03-08T10:47:45.713Z,1113
2023-03-08T10:48:46.320Z,1147
2023-03-08T10:49:46.935Z,1231
2023-03-08T10:50:47.555Z,1254
2023-03-08T10:51:48.155Z,1293
2023-03-08T10:52:48.755Z,1310
2023-03-08T10:53:49.355Z,1333
2023-03-08T10:54:50.758Z,1350
2023-03-08T10:55:51.326Z,1361
2023-03-08T10:56:51.918Z,1366
2023-03-08T10:57:52.525Z,1372
2023-03-08T10:58:53.137Z,1350
2023-03-08T10:59:53.768Z,1344
2023-03-08T11:00:54.382Z,1316
2023-03-08T11:01:54.963Z,1305
2023-03-08T11:02:55.560Z,1265
2023-03-08T11:03:56.161Z,1237
2023-03-08T11:04:56.828Z,1203
2023-03-08T11:05:57.393Z,1186
2023-03-08T11:06:57.993Z,1164
2023-03-08T11:07:58.594Z,1153
2023-03-08T11:08:59.198Z,1147
2023-03-08T11:09:59.808Z,1158
2023-03-08T11:11:00.410Z,1164
2023-03-08T11:12:01.026Z,1186
2023-03-08T11:13:01.636Z,1203
2023-03-08T11:14:02.226Z,1226
2023-03-08T11:15:02.822Z,1282
2023-03-08T11:16:03.471Z,1350
2023-03-08T11:17:04.040Z,1372
2023-03-08T11:18:04.636Z,1417
2023-03-08T11:19:05.239Z,1428
2023-03-08T11:20:05.870Z,1434
2023-03-08T11:21:06.471Z,1423
2023-03-08T11:22:07.065Z,1428
2023-03-08T11:23:07.689Z,1513
2023-03-08T11:24:08.341Z,1620
2023-03-08T11:25:08.926Z,1625
2023-03-08T11:26:09.501Z,1642
2023-03-08T11:27:10.143Z,1665
2023-03-08T11:28:10.752Z,1681
2023-03-08T11:29:11.347Z,1676
2023-03-08T11:30:12.782Z,1665
2023-03-08T11:31:13.431Z,1614
2023-03-08T11:32:14.009Z,1710
2023-03-08T11:33:14.719Z,1788
2023-03-08T11:34:15.350Z,1485
2023-03-08T11:35:15.948Z,1389
2023-03-08T11:36:16.567Z,1501
2023-03-08T11:37:17.168Z,1586
2023-03-08T11:38:17.784Z,1693
2023-03-08T11:39:18.361Z,1760
2023-03-08T11:40:18.963Z,1704
2023-03-08T11:41:19.585Z,1608
2023-03-08T11:42:20.209Z,1665
2023-03-08T11:43:20.804Z,1800
2023-03-08T11:44:21.424Z,1687
2023-03-08T11:45:22.034Z,1591
2023-03-08T11:46:22.702Z,1783
2023-03-08T11:47:23.372Z,1496
2023-03-08T11:48:23.929Z,1327
2023-03-08T11:49:24.529Z,1198
2023-03-08T11:50:25.130Z,1192
2023-03-08T11:51:25.728Z,1164
2023-03-08T11:52:26.337Z,1108
2023-03-08T11:53:26.958Z,1040
2023-03-08T11:54:27.570Z,916
2023-03-08T11:55:28.230Z,855
2023-03-08T11:56:28.785Z,787
2023-03-08T11:57:29.400Z,804
2023-03-08T11:58:30.029Z,826
2023-03-08T11:59:30.620Z,810
2023-03-08T12:00:31.237Z,832
2023-03-08T12:01:31.833Z,961
2023-03-08T12:02:32.432Z,1181
2023-03-08T12:03:33.160Z,1355
2023-03-08T12:04:34.008Z,1485
2023-03-08T12:05:34.621Z,1501
2023-03-08T12:06:35.363Z,1485
2023-03-08T12:07:35.986Z,1395
2023-03-08T12:08:36.582Z,1276
2023-03-08T12:09:37.189Z,1175
2023-03-08T12:10:37.801Z,1102
2023-03-08T12:11:38.405Z,1063
2023-03-08T12:12:39.004Z,1074
2023-03-08T12:13:39.601Z,1102
2023-03-08T12:14:40.221Z,1113
2023-03-08T12:15:40.867Z,1096
2023-03-08T12:16:41.515Z,1080
2023-03-08T12:17:42.100Z,1040
2023-03-08T12:18:42.692Z,1001
2023-03-08T12:19:43.305Z,978
2023-03-08T12:20:43.910Z,961
2023-03-08T12:21:44.560Z,950
2023-03-08T12:22:45.133Z,956
2023-03-08T12:23:45.771Z,967
2023-03-08T12:24:46.347Z,995
2023-03-08T12:25:46.968Z,978
2023-03-08T12:26:47.668Z,961
2023-03-08T12:27:48.233Z,877
2023-03-08T12:28:48.777Z,765
2023-03-08T12:29:49.445Z,748
2023-03-08T12:30:49.991Z,804
2023-03-08T12:31:50.674Z,843
2023-03-08T12:32:51.518Z,826
2023-03-08T12:33:52.136Z,742
2023-03-08T12:34:52.735Z,607
2023-03-08T12:35:53.437Z,506
2023-03-08T12:36:54.005Z,506
2023-03-08T12:37:54.583Z,568
2023-03-08T12:38:55.180Z,562
2023-03-08T12:39:55.784Z,461
2023-03-08T12:40:56.382Z,388
2023-03-08T12:41:56.976Z,388
2023-03-08T12:42:57.574Z,433
2023-03-08T12:43:58.172Z,461
2023-03-08T12:44:58.778Z,489
2023-03-08T12:45:59.513Z,523
2023-03-08T12:47:03.724Z,556
2023-03-08T12:48:01.636Z,607
2023-03-08T12:49:02.276Z,652
2023-03-08T12:50:02.814Z,663
2023-03-08T12:51:03.412Z,646
2023-03-08T12:52:04.007Z,630
2023-03-08T12:53:04.607Z,618
2023-03-08T12:54:05.237Z,596
2023-03-08T12:55:05.809Z,585
2023-03-08T12:56:06.440Z,590
2023-03-08T12:57:07.043Z,624
2023-03-08T12:58:07.641Z,680
2023-03-08T12:59:08.240Z,731
2023-03-08T13:00:08.836Z,765
2023-03-08T13:01:09.517Z,815
2023-03-08T13:02:10.077Z,832
2023-03-08T13:03:10.676Z,776
2023-03-08T13:04:11.302Z,720
2023-03-08T13:05:12.057Z,669
2023-03-08T13:06:12.648Z,630
2023-03-08T13:07:13.246Z,596
2023-03-08T13:08:13.845Z,601
2023-03-08T13:09:14.438Z,607
2023-03-08T13:10:15.037Z,573
2023-03-08T13:11:15.637Z,523
2023-03-08T13:12:16.272Z,489
2023-03-08T13:13:36.765Z,461
2023-03-08T13:14:18.428Z,506
2023-03-08T13:15:19.028Z,534
2023-03-08T13:16:19.685Z,534
2023-03-08T13:17:20.253Z,523
2023-03-08T13:18:20.842Z,528
2023-03-08T13:19:21.584Z,523
2023-03-08T13:20:22.139Z,506
2023-03-08T13:21:22.728Z,500
2023-03-08T13:22:23.374Z,489
2023-03-08T13:23:24.019Z,489
2023-03-08T13:24:24.582Z,489
2023-03-08T13:25:25.261Z,483
2023-03-08T13:26:25.840Z,489
2023-03-08T13:27:26.487Z,506
2023-03-08T13:28:37.660Z,517
2023-03-08T13:29:28.633Z,506
2023-03-08T13:30:29.257Z,489
2023-03-08T13:31:29.829Z,483
2023-03-08T13:32:32.520Z,489
2023-03-08T13:33:33.101Z,511
2023-03-08T13:34:33.696Z,534
2023-03-08T13:35:34.323Z,556
2023-03-08T13:36:34.919Z,562
2023-03-08T13:37:35.516Z,556
2023-03-08T13:38:36.114Z,545
2023-03-08T13:39:36.771Z,528
2023-03-08T13:40:37.368Z,523
2023-03-08T13:41:37.967Z,523
2023-03-08T13:42:38.578Z,523
2023-03-08T13:43:39.177Z,517
2023-03-08T13:44:39.852Z,506
2023-03-08T13:45:40.388Z,500
2023-03-08T13:46:41.030Z,495
2023-03-08T13:47:41.627Z,483
2023-03-08T13:48:42.227Z,461
2023-03-08T13:49:42.839Z,444
2023-03-08T13:50:43.441Z,421
2023-03-08T13:51:44.031Z,399
2023-03-08T13:52:44.624Z,393
2023-03-08T13:53:45.297Z,393
2023-03-08T13:54:45.871Z,399
2023-03-08T13:55:46.435Z,399
2023-03-08T13:56:47.027Z,393
2023-03-08T13:57:47.628Z,388
2023-03-08T13:58:48.249Z,376
2023-03-08T13:59:48.850Z,354
2023-03-08T14:00:49.448Z,326
2023-03-08T14:01:50.127Z,298
2023-03-08T14:02:50.839Z,286
2023-03-08T14:03:51.391Z,286
2023-03-08T14:04:52.030Z,292
2023-03-08T14:05:52.615Z,298
2023-03-08T14:06:53.196Z,298
2023-03-08T14:07:53.797Z,292
2023-03-08T14:08:54.423Z,281
2023-03-08T14:09:55.043Z,275
2023-03-08T14:10:55.680Z,270
2023-03-08T14:11:56.241Z,264
2023-03-08T14:12:56.839Z,264
2023-03-08T14:13:57.434Z,270
2023-03-08T14:14:58.063Z,281
2023-03-08T14:15:58.692Z,275
2023-03-08T14:16:59.301Z,286
2023-03-08T14:17:59.902Z,303
2023-03-08T14:19:00.614Z,326